Main page
METAR-TAF:

METAR-TAF

Airports :

Federico García Lorca Airport

Granada, Spain

latitude: 37-11N, longitude: 003-47W, elevation: 567 m

Current weather observation

The report was made 37 minutes ago, at 19:30 UTC
Wind 4 kt from the North, varying between North/Northwest and Northeast
Temperature 6°C
Humidity 75%
Pressure 1024 hPa
Visibility 10 km or more
no clouds below 1500 m and no cumulonimbus

METAR: LEGR 211930Z 36004KT 330V040 CAVOK 06/02 Q1024

Time: 21:07 (20:07 UTC)

Forecast

The report was made 3 hours and 7 minutes ago, at 17:00 UTC
Forecast valid from 21 at 18 UTC to 22 at 18 UTC
Wind 2 kt from variable directions
Visibility 10 km or more
no clouds below 1500 m and no cumulonimbus
Probability 30% :
Temporary
from 21 at 18 UTC to 21 at 22 UTC
Wind 10 kt from the South
Probability 40% :
Temporary
from 22 at 15 UTC to 22 at 18 UTC
Wind 10 kt from the South

TAF: LEGR 211700Z 2118/2218 VRB02KT CAVOK TX14/2215Z TNM03/2207Z PROB30 TEMPO 2118/2122 18010KT PROB40 TEMPO 2215/2218 18010KT

Weather observations and forecasts of more than 4000 airports (METAR and TAF reports).

The available stations are represented by yellow and red dots on the map.

Hover mouse over dot to see the name of the station.

Then click to see weather observations and forecasts.

To change the map : click on the green buttons with a black cross to zoom in, on the green button with a dash to zoom out, or on the green arrows for adjacent maps.


METAR-TAF: